Time;durP1;ratioP1;P1;durP2;ratioP2;P2;SDS_P1;SDS_P2;PMS_P1;PMS_P2;Temp;Humidity;BMP_temperature;BMP_pressure;BME280_temperature;BME280_humidity;BME280_pressure;Samples;Min_cycle;Max_cycle;Signal;HPM_P1;HPM_P2
2021/06/08 00:02:04;;;;;;;23.70;18.07;;;15.70;99.90;;;;;;5260948;27;20122;-59
2021/06/08 00:04:30;;;;;;;21.57;18.30;;;15.70;99.90;;;;;;5261879;27;20124;-58
2021/06/08 00:06:57;;;;;;;22.33;18.63;;;15.60;99.90;;;;;;5261693;27;20147;-59
2021/06/08 00:09:24;;;;;;;20.63;16.57;;;15.60;99.90;;;;;;5261607;27;20134;-61
2021/06/08 00:11:50;;;;;;;20.00;16.47;;;15.50;99.90;;;;;;5261596;27;20115;-59
2021/06/08 00:14:18;;;;;;;20.17;17.23;;;15.50;99.90;;;;;;5261371;27;20147;-60
2021/06/08 00:16:44;;;;;;;20.97;16.87;;;15.50;99.90;;;;;;5261010;27;20475;-61
2021/06/08 00:19:10;;;;;;;19.43;16.33;;;15.50;99.90;;;;;;5261538;27;20538;-60
2021/06/08 00:21:37;;;;;;;18.33;16.43;;;15.40;99.90;;;;;;5262779;27;20155;-59
2021/06/08 00:24:04;;;;;;;21.73;17.10;;;15.40;99.90;;;;;;4650862;27;15365483;-60
2021/06/08 00:26:32;;;;;;;18.07;16.00;;;15.40;99.90;;;;;;5175262;27;20218;-60
2021/06/08 00:28:59;;;;;;;21.87;16.73;;;15.30;99.90;;;;;;5173774;27;20104;-62
2021/06/08 00:31:26;;;;;;;19.37;15.07;;;15.30;99.90;;;;;;5173574;27;20109;-60
2021/06/08 00:33:53;;;;;;;21.60;16.17;;;15.30;99.90;;;;;;5174677;27;20113;-62
2021/06/08 00:36:20;;;;;;;19.63;15.57;;;15.20;99.90;;;;;;5174029;27;20646;-61
2021/06/08 00:38:46;;;;;;;18.77;16.27;;;15.30;99.90;;;;;;5174353;27;20108;-60
2021/06/08 00:41:12;;;;;;;21.90;17.63;;;15.20;99.90;;;;;;5173929;27;20616;-62
2021/06/08 00:43:39;;;;;;;19.00;15.53;;;15.20;99.90;;;;;;5173742;27;20167;-59
2021/06/08 00:46:06;;;;;;;18.53;16.40;;;15.10;99.90;;;;;;5173940;27;20105;-60
2021/06/08 00:48:36;;;;;;;18.60;16.13;;;15.10;99.90;;;;;;5173766;27;20143;-60
2021/06/08 00:51:05;;;;;;;22.67;16.40;;;15.00;99.90;;;;;;5175697;27;20133;-60
2021/06/08 00:53:32;;;;;;;19.47;15.73;;;15.00;99.90;;;;;;5173320;27;20112;-63
2021/06/08 00:55:58;;;;;;;18.40;15.63;;;15.00;99.90;;;;;;5173707;27;20156;-60
2021/06/08 00:58:24;;;;;;;18.60;16.63;;;15.00;99.90;;;;;;5174762;27;20139;-60
2021/06/08 01:00:51;;;;;;;19.63;15.10;;;14.90;99.90;;;;;;5173855;27;20129;-61
2021/06/08 01:03:17;;;;;;;17.73;14.43;;;14.90;99.90;;;;;;5255172;27;20188;-61
2021/06/08 01:05:45;;;;;;;18.63;14.97;;;14.90;99.90;;;;;;5263328;27;20150;-60
2021/06/08 01:08:11;;;;;;;16.93;15.00;;;14.90;99.90;;;;;;5261220;27;20115;-59
2021/06/08 01:10:37;;;;;;;18.67;14.30;;;14.80;99.90;;;;;;5261266;27;20166;-59
2021/06/08 01:13:03;;;;;;;17.63;15.57;;;14.80;99.90;;;;;;5260998;27;20155;-59
2021/06/08 01:15:30;;;;;;;19.53;15.23;;;14.80;99.90;;;;;;5261188;27;20127;-63
2021/06/08 01:17:56;;;;;;;16.50;14.50;;;14.70;99.90;;;;;;5261264;27;20182;-60
2021/06/08 01:20:23;;;;;;;17.53;15.63;;;14.70;99.90;;;;;;5261208;27;20150;-61
2021/06/08 01:22:51;;;;;;;17.93;14.53;;;14.70;99.90;;;;;;5260981;27;20108;-61
2021/06/08 01:25:19;;;;;;;17.57;15.67;;;14.60;99.90;;;;;;5260901;27;20159;-60
2021/06/08 01:27:45;;;;;;;16.70;14.13;;;14.60;99.90;;;;;;5261952;27;20115;-64
2021/06/08 01:30:13;;;;;;;17.80;15.10;;;14.60;99.90;;;;;;5261003;27;20124;-59
2021/06/08 01:32:42;;;;;;;17.20;15.30;;;14.60;99.90;;;;;;5262111;27;20111;-61
2021/06/08 01:35:10;;;;;;;19.33;15.97;;;14.50;99.90;;;;;;5261485;27;20518;-59
2021/06/08 01:37:38;;;;;;;16.10;14.43;;;14.50;99.90;;;;;;5262623;27;20131;-62
2021/06/08 01:40:08;;;;;;;17.20;15.23;;;14.50;99.90;;;;;;5261805;27;20406;-59
2021/06/08 01:42:35;;;;;;;16.17;14.30;;;14.40;99.90;;;;;;5261838;27;20153;-59
2021/06/08 01:45:02;;;;;;;19.23;14.90;;;14.30;99.90;;;;;;5260340;27;20165;-61
2021/06/08 01:47:28;;;;;;;17.87;14.80;;;14.40;99.90;;;;;;5260688;27;20442;-60
2021/06/08 01:49:54;;;;;;;15.83;14.23;;;14.30;99.90;;;;;;5261068;27;20122;-60
2021/06/08 01:52:34;;;;;;;18.17;15.53;;;14.30;99.90;;;;;;5260715;27;20115;-61
2021/06/08 01:55:10;;;;;;;17.77;15.03;;;14.30;99.90;;;;;;5261943;27;20141;-61
2021/06/08 01:57:41;;;;;;;15.70;13.40;;;14.30;99.90;;;;;;5261937;27;20118;-61
2021/06/08 02:00:09;;;;;;;18.40;15.20;;;14.20;99.90;;;;;;5260778;27;20142;-62
2021/06/08 02:02:47;;;;;;;16.90;14.73;;;14.20;99.90;;;;;;5260496;27;20126;-60
2021/06/08 02:05:24;;;;;;;20.40;14.20;;;14.20;99.90;;;;;;5260856;27;20107;-60
2021/06/08 02:07:57;;;;;;;17.70;15.90;;;14.10;99.90;;;;;;5261336;27;20150;-60
2021/06/08 02:10:36;;;;;;;18.23;15.33;;;14.10;99.90;;;;;;5260255;27;20468;-61
2021/06/08 02:13:10;;;;;;;16.97;14.87;;;14.10;99.90;;;;;;5261185;27;20123;-60
2021/06/08 02:15:41;;;;;;;19.87;16.20;;;14.00;99.90;;;;;;5261001;27;20135;-61
2021/06/08 02:18:09;;;;;;;18.23;15.57;;;14.00;99.90;;;;;;5260809;27;20150;-61
2021/06/08 02:20:38;;;;;;;22.30;15.00;;;14.00;99.90;;;;;;5262911;27;20586;-61
2021/06/08 02:23:08;;;;;;;18.27;15.53;;;14.00;99.90;;;;;;5260542;27;20169;-59
2021/06/08 02:25:36;;;;;;;17.93;15.90;;;13.90;99.90;;;;;;5260132;27;20139;-58
2021/06/08 02:28:10;;;;;;;19.00;15.87;;;13.90;99.90;;;;;;5260802;27;20102;-62
2021/06/08 02:30:40;;;;;;;18.43;15.53;;;13.90;99.90;;;;;;5260919;27;20126;-59
2021/06/08 02:33:08;;;;;;;16.80;15.00;;;13.90;99.90;;;;;;5260663;27;20157;-61
2021/06/08 02:35:36;;;;;;;17.50;14.80;;;13.90;99.90;;;;;;5262466;27;20119;-61
2021/06/08 02:38:03;;;;;;;16.73;14.60;;;13.80;99.90;;;;;;5261286;27;20124;-61
2021/06/08 02:40:31;;;;;;;19.03;16.57;;;13.80;99.90;;;;;;5260503;27;20178;-59
2021/06/08 02:43:00;;;;;;;18.40;15.10;;;13.80;99.90;;;;;;5260554;27;20162;-59
2021/06/08 02:45:28;;;;;;;19.20;16.50;;;13.80;99.90;;;;;;5260739;27;20174;-61
2021/06/08 02:47:56;;;;;;;17.37;15.43;;;13.70;99.90;;;;;;5260654;27;20107;-61
2021/06/08 02:50:23;;;;;;;20.90;15.70;;;13.70;99.90;;;;;;5260726;27;20109;-60
2021/06/08 02:52:54;;;;;;;19.27;15.60;;;13.60;99.90;;;;;;5260518;27;20161;-60
2021/06/08 02:55:21;;;;;;;18.20;13.87;;;13.60;99.90;;;;;;5260555;27;20410;-62
2021/06/08 02:57:51;;;;;;;17.40;15.40;;;13.60;99.90;;;;;;5263423;27;20460;-60
2021/06/08 03:00:28;;;;;;;18.60;15.60;;;13.60;99.90;;;;;;5261880;27;20135;-62
2021/06/08 03:03:10;;;;;;;18.83;14.63;;;13.50;99.90;;;;;;5259832;27;20145;-60
2021/06/08 03:05:58;;;;;;;16.73;14.90;;;13.50;99.90;;;;;;5258895;27;20205;-59
2021/06/08 03:08:32;;;;;;;16.80;15.00;;;13.50;99.90;;;;;;5258349;27;20121;-59
2021/06/08 03:11:03;;;;;;;18.30;15.73;;;13.50;99.90;;;;;;5259614;27;20115;-60
2021/06/08 03:13:32;;;;;;;16.70;14.67;;;13.40;99.90;;;;;;5259987;27;20163;-60
2021/06/08 03:16:04;;;;;;;18.80;13.87;;;13.40;99.90;;;;;;5242055;27;20163;-60
2021/06/08 03:18:31;;;;;;;21.53;15.97;;;13.40;99.90;;;;;;5262656;27;20106;-62
2021/06/08 03:21:01;;;;;;;18.10;15.73;;;13.40;99.90;;;;;;5262508;27;20438;-59
2021/06/08 03:23:30;;;;;;;19.07;15.47;;;13.40;99.90;;;;;;5262221;27;20547;-60
2021/06/08 03:26:01;;;;;;;16.50;14.80;;;13.40;99.90;;;;;;5261398;27;20595;-61
2021/06/08 03:28:30;;;;;;;18.70;14.50;;;13.40;99.90;;;;;;5264216;27;20142;-60
2021/06/08 03:30:58;;;;;;;22.70;16.50;;;13.40;99.90;;;;;;5261867;27;20531;-59
2021/06/08 03:33:26;;;;;;;18.77;14.17;;;13.40;99.90;;;;;;5261753;27;20139;-62
2021/06/08 03:35:55;;;;;;;16.90;14.90;;;13.40;99.90;;;;;;5261290;27;20107;-61
2021/06/08 03:38:24;;;;;;;18.50;14.63;;;13.40;99.90;;;;;;5261523;27;20133;-60
2021/06/08 03:40:51;;;;;;;15.03;13.50;;;13.40;99.90;;;;;;5263402;27;20108;-61
2021/06/08 03:43:19;;;;;;;17.43;14.60;;;13.40;99.90;;;;;;5261892;27;20139;-63
2021/06/08 03:45:47;;;;;;;17.53;13.70;;;13.40;99.90;;;;;;5263057;27;20615;-60
2021/06/08 03:48:15;;;;;;;16.50;14.13;;;13.40;99.90;;;;;;5261721;27;20117;-61
2021/06/08 03:50:43;;;;;;;15.57;13.53;;;13.50;99.90;;;;;;5262341;27;20108;-61
2021/06/08 03:53:10;;;;;;;17.13;15.20;;;13.40;99.90;;;;;;5261898;27;20550;-59
2021/06/08 03:55:36;;;;;;;22.57;15.03;;;13.50;99.90;;;;;;5261791;27;20127;-61
2021/06/08 03:58:10;;;;;;;17.27;14.40;;;13.50;99.90;;;;;;5261333;27;20110;-60
2021/06/08 04:00:37;;;;;;;16.60;14.40;;;13.50;99.90;;;;;;5261485;27;20128;-60
2021/06/08 04:03:09;;;;;;;16.57;14.87;;;13.50;99.90;;;;;;5260971;27;20123;-59
2021/06/08 04:05:36;;;;;;;17.77;14.97;;;13.50;99.90;;;;;;5261731;27;20109;-61
2021/06/08 04:08:05;;;;;;;20.47;15.33;;;13.50;99.90;;;;;;5261077;27;20124;-62
2021/06/08 04:10:32;;;;;;;18.67;15.13;;;13.60;99.90;;;;;;5264142;27;20131;-62
2021/06/08 04:12:59;;;;;;;18.00;14.07;;;13.60;99.90;;;;;;5260878;27;20119;-61
2021/06/08 04:15:26;;;;;;;18.67;14.80;;;13.70;99.90;;;;;;5262813;27;20193;-62
2021/06/08 04:17:53;;;;;;;18.47;14.90;;;13.70;99.90;;;;;;5261159;27;20114;-59
2021/06/08 04:20:20;;;;;;;17.03;14.27;;;13.90;99.90;;;;;;5261685;27;20136;-60
2021/06/08 04:22:46;;;;;;;20.23;14.87;;;13.80;99.90;;;;;;5261689;27;20126;-60
2021/06/08 04:25:17;;;;;;;17.73;14.57;;;13.90;99.90;;;;;;5260897;27;20154;-62
2021/06/08 04:27:44;;;;;;;18.97;14.67;;;13.90;99.90;;;;;;5261225;27;20126;-61
2021/06/08 04:30:13;;;;;;;15.13;13.47;;;14.10;99.90;;;;;;5262598;27;20165;-60
2021/06/08 04:32:39;;;;;;;16.80;14.13;;;14.20;99.90;;;;;;5260914;27;20454;-60
2021/06/08 04:35:08;;;;;;;15.10;13.53;;;14.30;99.90;;;;;;5261777;27;20107;-63
2021/06/08 04:37:34;;;;;;;25.10;14.93;;;14.30;99.90;;;;;;5263038;27;20117;-63
2021/06/08 04:40:01;;;;;;;16.93;14.27;;;14.40;99.90;;;;;;5261082;27;20112;-57
2021/06/08 04:42:29;;;;;;;15.47;13.83;;;14.50;99.90;;;;;;5261266;27;20157;-60
2021/06/08 04:44:55;;;;;;;16.03;13.20;;;14.80;99.90;;;;;;5262084;27;20149;-60
2021/06/08 04:47:23;;;;;;;15.70;13.63;;;14.90;99.90;;;;;;5263196;27;20169;-60
2021/06/08 04:49:50;;;;;;;14.63;13.00;;;15.00;99.90;;;;;;5261497;27;20479;-57
2021/06/08 04:52:17;;;;;;;17.90;13.80;;;15.00;99.90;;;;;;5261749;27;20128;-59
2021/06/08 04:54:44;;;;;;;14.97;13.47;;;15.10;99.90;;;;;;5261801;27;20127;-58
2021/06/08 04:57:12;;;;;;;16.60;13.40;;;15.10;99.90;;;;;;5262166;27;20458;-60
2021/06/08 04:59:46;;;;;;;14.27;12.80;;;15.10;99.90;;;;;;5261875;27;20586;-60
2021/06/08 05:02:17;;;;;;;17.53;13.87;;;15.10;99.90;;;;;;5260780;27;20137;-59
2021/06/08 05:04:47;;;;;;;15.03;13.43;;;15.10;99.90;;;;;;5260648;27;20157;-59
2021/06/08 05:07:17;;;;;;;14.13;12.73;;;15.30;99.90;;;;;;5263425;27;20519;-60
2021/06/08 05:09:47;;;;;;;15.40;13.07;;;15.40;99.90;;;;;;5261726;27;20115;-58
2021/06/08 05:12:15;;;;;;;16.10;12.97;;;15.60;99.90;;;;;;5261093;27;20111;-59
2021/06/08 05:14:49;;;;;;;15.40;12.00;;;15.60;99.90;;;;;;5262895;27;20428;-58
2021/06/08 05:17:18;;;;;;;13.70;12.23;;;15.60;99.90;;;;;;5261258;27;20123;-61
2021/06/08 05:19:45;;;;;;;18.27;13.67;;;15.60;99.90;;;;;;5260760;27;20123;-59
2021/06/08 05:22:13;;;;;;;16.33;13.03;;;15.80;99.90;;;;;;5261253;27;20116;-59
2021/06/08 05:24:39;;;;;;;14.40;12.90;;;16.20;99.90;;;;;;5260657;27;20609;-60
2021/06/08 05:27:10;;;;;;;14.43;12.57;;;16.60;99.90;;;;;;5260733;27;20146;-59
2021/06/08 05:29:36;;;;;;;17.43;13.00;;;16.90;99.90;;;;;;5260966;27;20115;-59
2021/06/08 05:32:05;;;;;;;15.23;12.43;;;16.90;99.90;;;;;;5260739;27;20412;-59
2021/06/08 05:34:33;;;;;;;14.20;11.53;;;17.00;99.90;;;;;;5260655;27;20123;-59
2021/06/08 05:37:07;;;;;;;15.23;12.30;;;17.10;99.90;;;;;;5260371;27;20135;-59
2021/06/08 05:39:37;;;;;;;13.73;12.13;;;17.30;99.90;;;;;;5260647;27;20123;-58
2021/06/08 05:42:05;;;;;;;11.13;9.83;;;18.20;99.90;;;;;;5261038;27;20108;-59
2021/06/08 05:44:33;;;;;;;10.10;9.00;;;22.80;97.40;;;;;;5260949;27;20138;-63
2021/06/08 05:47:00;;;;;;;11.70;8.87;;;28.30;84.40;;;;;;5261068;27;20117;-59
2021/06/08 05:49:28;;;;;;;8.17;7.37;;;30.90;67.10;;;;;;5262749;27;20107;-60
2021/06/08 05:51:57;;;;;;;11.30;7.00;;;31.70;60.80;;;;;;5261227;27;20501;-60
2021/06/08 05:54:25;;;;;;;9.50;7.03;;;30.30;59.00;;;;;;5260873;27;20111;-62
2021/06/08 05:56:53;;;;;;;8.27;7.57;;;27.60;64.00;;;;;;5261170;27;20157;-59
2021/06/08 05:59:20;;;;;;;8.73;7.57;;;25.10;70.60;;;;;;5260442;27;20118;-63
2021/06/08 06:01:47;;;;;;;10.40;8.63;;;23.20;77.00;;;;;;5259460;27;20128;-58
2021/06/08 06:04:16;;;;;;;14.77;9.03;;;21.80;83.60;;;;;;5261289;27;20511;-59
2021/06/08 06:06:45;;;;;;;9.97;8.40;;;20.80;89.30;;;;;;5260422;27;20107;-59
2021/06/08 06:09:12;;;;;;;10.80;8.20;;;20.00;92.10;;;;;;5261249;27;20590;-58
2021/06/08 06:11:40;;;;;;;8.97;7.83;;;19.50;93.80;;;;;;5261452;27;20607;-59
2021/06/08 06:14:10;;;;;;;11.90;8.40;;;19.00;94.70;;;;;;5260867;27;20559;-62
2021/06/08 06:16:44;;;;;;;8.17;7.03;;;18.80;96.60;;;;;;5260851;27;20526;-58
2021/06/08 06:19:11;;;;;;;10.30;7.50;;;18.50;96.50;;;;;;5259169;27;20123;-58
2021/06/08 06:21:39;;;;;;;9.40;7.93;;;18.40;97.30;;;;;;5260477;27;20138;-57
2021/06/08 06:24:09;;;;;;;9.37;7.20;;;18.30;97.60;;;;;;5260584;27;20118;-58
2021/06/08 06:26:36;;;;;;;9.43;7.30;;;18.20;98.20;;;;;;5260193;27;20134;-61
2021/06/08 06:29:05;;;;;;;8.67;5.17;;;18.20;98.40;;;;;;5261791;27;20108;-59
2021/06/08 06:31:32;;;;;;;8.20;5.93;;;18.20;97.40;;;;;;5260845;27;20108;-59
2021/06/08 06:33:59;;;;;;;8.37;5.30;;;18.10;97.60;;;;;;5241780;27;20179;-56
2021/06/08 06:36:26;;;;;;;5.80;4.50;;;18.20;98.10;;;;;;5260287;27;20122;-58
2021/06/08 06:38:58;;;;;;;5.30;4.27;;;18.30;97.30;;;;;;5262249;27;20170;-57
2021/06/08 06:41:29;;;;;;;6.17;4.63;;;18.30;97.50;;;;;;5263094;27;20133;-58
2021/06/08 06:43:57;;;;;;;5.57;4.00;;;18.40;97.00;;;;;;5260038;27;20106;-56
2021/06/08 06:46:23;;;;;;;4.50;2.80;;;18.40;97.30;;;;;;5262300;27;20479;-55
2021/06/08 06:48:52;;;;;;;4.00;3.00;;;18.40;96.20;;;;;;5260617;27;20537;-59
2021/06/08 06:51:19;;;;;;;4.03;2.30;;;18.50;95.80;;;;;;5262521;27;20428;-59
2021/06/08 06:53:48;;;;;;;2.83;2.30;;;18.50;94.70;;;;;;5261366;27;20506;-59
2021/06/08 06:56:15;;;;;;;3.83;2.10;;;18.60;94.80;;;;;;5261418;27;20107;-57
2021/06/08 06:58:42;;;;;;;4.40;2.67;;;18.70;94.10;;;;;;5260674;27;20114;-58
2021/06/08 07:01:09;;;;;;;5.07;2.20;;;18.60;93.50;;;;;;5260309;27;20103;-57
2021/06/08 07:03:36;;;;;;;3.77;2.07;;;18.70;94.20;;;;;;5261248;27;20115;-57
2021/06/08 07:06:04;;;;;;;2.13;1.70;;;18.80;93.50;;;;;;5260484;27;20126;-58
2021/06/08 07:08:32;;;;;;;2.90;1.97;;;18.90;93.50;;;;;;5262631;27;20108;-60
2021/06/08 07:11:00;;;;;;;2.27;1.77;;;19.00;92.70;;;;;;5261811;27;20397;-59
2021/06/08 07:13:27;;;;;;;3.33;2.03;;;19.40;91.20;;;;;;5260683;27;20106;-57
2021/06/08 07:15:55;;;;;;;2.60;1.57;;;20.20;90.60;;;;;;5260783;27;20534;-59
2021/06/08 07:18:24;;;;;;;4.13;1.73;;;20.90;89.80;;;;;;5262815;27;20108;-59
2021/06/08 07:20:51;;;;;;;1.83;1.10;;;20.70;87.50;;;;;;5261547;27;20538;-57
2021/06/08 07:23:24;;;;;;;3.50;1.60;;;20.60;87.70;;;;;;5260624;27;20142;-61
2021/06/08 07:25:50;;;;;;;1.80;1.10;;;22.10;85.30;;;;;;5259953;27;20559;-61
2021/06/08 07:28:18;;;;;;;1.93;1.10;;;26.50;75.60;;;;;;5260587;27;20118;-59
2021/06/08 07:30:45;;;;;;;2.80;1.30;;;30.30;60.40;;;;;;5259861;27;20462;-56
2021/06/08 07:33:22;;;;;;;3.05;1.23;;;30.00;54.90;;;;;;5257785;27;20115;-57
2021/06/08 07:35:55;;;;;;;4.00;1.12;;;29.50;53.50;;;;;;5241351;27;20153;-58
2021/06/08 07:38:28;;;;;;;2.80;1.30;;;29.10;53.30;;;;;;5257700;27;20134;-58
2021/06/08 07:41:07;;;;;;;1.73;1.12;;;28.20;54.30;;;;;;5257258;27;20130;-59
2021/06/08 07:43:37;;;;;;;1.95;1.12;;;27.00;55.30;;;;;;5262235;27;20121;-60
2021/06/08 07:46:09;;;;;;;2.97;1.48;;;26.90;57.40;;;;;;5263288;27;20156;-59
2021/06/08 07:48:40;;;;;;;2.50;1.25;;;26.80;62.00;;;;;;5263156;27;20111;-59
2021/06/08 07:51:08;;;;;;;1.48;1.08;;;27.40;58.10;;;;;;5261815;27;20113;-58
2021/06/08 07:53:35;;;;;;;1.35;0.80;;;30.30;53.90;;;;;;5264023;27;20146;-59
2021/06/08 07:56:02;;;;;;;0.93;0.68;;;32.90;49.20;;;;;;5261781;27;20115;-62
2021/06/08 07:58:29;;;;;;;1.30;0.77;;;33.70;48.50;;;;;;5262386;27;20158;-62
2021/06/08 08:00:57;;;;;;;1.42;1.00;;;34.80;45.70;;;;;;5261622;27;20130;-62
2021/06/08 08:03:26;;;;;;;1.70;1.00;;;40.50;41.20;;;;;;5262049;27;20153;-61
2021/06/08 08:05:58;;;;;;;1.77;0.98;;;45.40;34.80;;;;;;5264001;27;20111;-60
2021/06/08 08:08:25;;;;;;;0.60;0.60;;;49.40;31.60;;;;;;5261699;27;20107;-58
2021/06/08 08:10:53;;;;;;;1.23;0.73;;;51.50;29.10;;;;;;5261736;27;20157;-60
2021/06/08 08:13:22;;;;;;;1.33;0.80;;;52.90;28.60;;;;;;5262707;27;20179;-59
2021/06/08 08:15:50;;;;;;;3.00;0.80;;;54.30;27.30;;;;;;5261719;27;20121;-60
2021/06/08 08:18:18;;;;;;;2.42;0.90;;;54.70;26.70;;;;;;5262431;27;20122;-60
2021/06/08 08:20:46;;;;;;;2.35;0.75;;;54.90;26.20;;;;;;5263184;27;20507;-60
2021/06/08 08:23:15;;;;;;;0.88;0.55;;;55.40;26.30;;;;;;5262385;27;20195;-60
2021/06/08 08:25:42;;;;;;;1.23;0.70;;;55.60;25.90;;;;;;5262548;27;20135;-60
2021/06/08 08:28:10;;;;;;;1.50;0.82;;;55.50;26.10;;;;;;5261555;27;20107;-62
2021/06/08 08:30:37;;;;;;;1.42;0.93;;;56.60;25.80;;;;;;5261196;27;20107;-59
2021/06/08 08:33:06;;;;;;;2.25;0.77;;;55.70;26.00;;;;;;5262349;27;20154;-60
2021/06/08 08:35:35;;;;;;;1.85;0.93;;;56.60;25.80;;;;;;5261343;27;20140;-61
2021/06/08 08:38:02;;;;;;;1.85;0.60;;;56.80;25.50;;;;;;5263886;27;20147;-62
2021/06/08 08:40:31;;;;;;;1.95;0.95;;;56.80;25.10;;;;;;5261426;27;20435;-60
2021/06/08 08:43:01;;;;;;;0.90;0.80;;;56.70;25.40;;;;;;5262233;27;20515;-63
2021/06/08 08:45:28;;;;;;;0.82;0.80;;;56.50;24.90;;;;;;5261693;27;20491;-60
2021/06/08 08:47:55;;;;;;;1.85;0.88;;;56.80;25.50;;;;;;5262953;27;20135;-60
2021/06/08 08:50:22;;;;;;;1.30;0.90;;;55.00;25.50;;;;;;5260571;27;20540;-60
2021/06/08 08:52:56;;;;;;;2.72;1.40;;;56.20;25.10;;;;;;5261749;27;20400;-62
2021/06/08 08:55:24;;;;;;;2.67;1.17;;;55.90;25.30;;;;;;5260599;27;20434;-60
2021/06/08 08:57:52;;;;;;;2.62;1.15;;;55.60;25.40;;;;;;5261529;27;20141;-61
2021/06/08 09:00:21;;;;;;;1.95;1.35;;;52.60;25.30;;;;;;5263938;27;20127;-63
2021/06/08 09:02:49;;;;;;;1.85;1.27;;;54.20;25.50;;;;;;5260730;27;20173;-61
2021/06/08 09:05:15;;;;;;;2.20;1.00;;;53.70;25.50;;;;;;5262061;27;20172;-62
2021/06/08 09:07:41;;;;;;;2.22;1.10;;;54.00;25.30;;;;;;5261317;27;20118;-62
2021/06/08 09:10:11;;;;;;;3.45;1.20;;;54.80;25.30;;;;;;5261390;27;20578;-60
2021/06/08 09:12:38;;;;;;;1.92;1.10;;;55.60;25.10;;;;;;5263653;27;20166;-61
2021/06/08 09:15:07;;;;;;;3.55;1.20;;;55.40;25.30;;;;;;5261269;27;20118;-61
2021/06/08 09:17:34;;;;;;;2.67;1.25;;;55.00;25.60;;;;;;5262852;27;20137;-61
2021/06/08 09:20:03;;;;;;;3.00;1.30;;;55.40;24.60;;;;;;5261100;27;20127;-61
2021/06/08 09:22:48;;;;;;;2.40;1.20;;;54.30;25.00;;;;;;5261802;27;20153;-58
2021/06/08 09:25:18;;;;;;;3.05;1.50;;;55.30;25.00;;;;;;5261759;27;20134;-58
2021/06/08 09:27:44;;;;;;;4.15;1.35;;;55.80;24.90;;;;;;5261597;27;20177;-59
2021/06/08 09:30:15;;;;;;;2.17;1.50;;;55.00;25.80;;;;;;5261188;27;20103;-59
2021/06/08 09:32:41;;;;;;;3.15;1.30;;;53.80;24.70;;;;;;5261489;27;20108;-59
2021/06/08 09:35:08;;;;;;;2.08;1.33;;;51.40;24.70;;;;;;5261357;27;20107;-60
2021/06/08 09:37:37;;;;;;;3.05;1.60;;;50.70;26.10;;;;;;5261728;27;20115;-61
2021/06/08 09:40:17;;;;;;;1.50;1.30;;;51.70;25.70;;;;;;5261225;27;20135;-58
2021/06/08 09:42:44;;;;;;;1.25;1.12;;;52.50;25.60;;;;;;5262414;27;20107;-60
2021/06/08 09:45:12;;;;;;;2.37;1.48;;;53.20;25.70;;;;;;5260971;27;20137;-59
2021/06/08 09:47:41;;;;;;;2.25;1.70;;;53.30;25.50;;;;;;5261232;27;20136;-58
2021/06/08 09:50:29;;;;;;;2.40;1.90;;;51.90;26.20;;;;;;5261040;27;20154;-59
2021/06/08 09:53:20;;;;;;;2.85;1.85;;;48.50;26.70;;;;;;5261064;27;20118;-62
2021/06/08 09:55:51;;;;;;;2.45;1.55;;;43.90;27.70;;;;;;5261130;27;20106;-60
2021/06/08 09:58:18;;;;;;;3.83;1.73;;;39.40;29.30;;;;;;5262523;27;20123;-61
2021/06/08 10:01:05;;;;;;;3.03;1.48;;;36.20;31.60;;;;;;5261440;27;20485;-61
2021/06/08 10:03:38;;;;;;;4.82;2.12;;;34.10;33.30;;;;;;5260913;27;20117;-62
2021/06/08 10:06:09;;;;;;;4.15;1.60;;;31.10;35.10;;;;;;5261069;27;20111;-61
2021/06/08 10:08:38;;;;;;;1.62;1.33;;;30.00;36.80;;;;;;5261552;27;20138;-60
2021/06/08 10:11:14;;;;;;;3.78;1.67;;;29.70;37.50;;;;;;5260887;27;20104;-58
2021/06/08 10:13:41;;;;;;;4.00;1.85;;;29.20;38.50;;;;;;5260837;27;20111;-59
2021/06/08 10:16:08;;;;;;;6.40;2.10;;;28.80;38.40;;;;;;5261817;27;20470;-60
2021/06/08 10:18:44;;;;;;;3.40;1.75;;;28.40;40.20;;;;;;5260988;27;20122;-60
2021/06/08 10:21:11;;;;;;;4.12;1.80;;;28.30;38.50;;;;;;5260978;27;20156;-58
2021/06/08 10:23:38;;;;;;;4.15;1.85;;;28.30;40.20;;;;;;5260343;27;20434;-60
2021/06/08 10:26:06;;;;;;;2.80;1.77;;;28.10;40.30;;;;;;5260587;27;20139;-59
2021/06/08 10:28:33;;;;;;;4.85;2.00;;;27.90;40.10;;;;;;5261124;27;20123;-61
2021/06/08 10:31:00;;;;;;;4.72;1.90;;;27.90;41.20;;;;;;5261171;27;20409;-59
2021/06/08 10:33:27;;;;;;;3.12;1.67;;;27.90;40.70;;;;;;5260507;27;20116;-59
2021/06/08 10:35:56;;;;;;;3.05;1.75;;;27.90;40.80;;;;;;5260681;27;20107;-61
2021/06/08 10:38:23;;;;;;;3.55;1.80;;;27.70;39.70;;;;;;5259766;27;20178;-59
2021/06/08 10:40:54;;;;;;;2.78;1.60;;;27.50;40.90;;;;;;5260155;27;20107;-61
2021/06/08 10:43:24;;;;;;;1.87;1.65;;;27.50;40.90;;;;;;5260016;27;20112;-61
2021/06/08 10:45:54;;;;;;;4.65;2.03;;;27.50;42.40;;;;;;5260515;27;20107;-60
2021/06/08 10:48:31;;;;;;;2.75;1.90;;;27.30;41.40;;;;;;5260570;27;20118;-61
2021/06/08 10:51:23;;;;;;;1.95;1.70;;;27.30;41.00;;;;;;5260134;27;20500;-59
2021/06/08 10:53:55;;;;;;;2.65;1.73;;;27.20;41.80;;;;;;5172753;27;20469;-60
2021/06/08 10:56:27;;;;;;;3.67;1.87;;;27.00;41.50;;;;;;5172988;27;20155;-61
2021/06/08 10:58:55;;;;;;;3.55;1.83;;;26.90;41.60;;;;;;5173079;27;20284;-61
2021/06/08 11:01:50;;;;;;;4.32;1.77;;;26.90;41.60;;;;;;5172783;27;20463;-60
2021/06/08 11:04:27;;;;;;;2.53;1.83;;;27.20;43.10;;;;;;5172958;27;20141;-60
2021/06/08 11:07:00;;;;;;;2.17;1.50;;;27.20;40.70;;;;;;5172424;27;20452;-60
2021/06/08 11:09:36;;;;;;;2.55;1.80;;;27.20;42.50;;;;;;5173072;27;20117;-59
2021/06/08 11:12:23;;;;;;;3.03;1.87;;;27.20;42.10;;;;;;5173077;27;20207;-60
2021/06/08 11:15:00;;;;;;;3.22;1.85;;;27.20;41.70;;;;;;5172262;27;20152;-60
2021/06/08 11:17:35;;;;;;;2.75;2.20;;;27.20;41.50;;;;;;5173705;27;20124;-61
2021/06/08 11:20:18;;;;;;;3.72;2.37;;;27.30;41.00;;;;;;5174207;27;20121;-59
2021/06/08 11:23:10;;;;;;;2.87;2.05;;;27.20;41.90;;;;;;5174376;27;20119;-59
2021/06/08 11:25:42;;;;;;;2.45;2.20;;;27.20;42.30;;;;;;5173986;27;20163;-61
2021/06/08 11:28:13;;;;;;;4.30;2.22;;;27.20;42.60;;;;;;5173757;27;20616;-59
2021/06/08 11:30:42;;;;;;;3.00;1.73;;;27.30;42.60;;;;;;5217065;27;20123;-58
2021/06/08 11:33:25;;;;;;;3.40;1.73;;;27.20;43.60;;;;;;5261751;27;20176;-58
2021/06/08 11:35:52;;;;;;;2.60;1.65;;;27.20;42.50;;;;;;5261850;27;20205;-59
2021/06/08 11:38:33;;;;;;;2.78;1.98;;;27.20;42.60;;;;;;5263305;27;20138;-59
2021/06/08 11:41:08;;;;;;;5.12;2.28;;;27.30;41.90;;;;;;5261770;27;20253;-60
2021/06/08 11:44:00;;;;;;;3.05;1.90;;;27.20;42.30;;;;;;5262328;27;20126;-58
2021/06/08 11:47:04;;;;;;;2.80;2.12;;;27.20;42.60;;;;;;5261565;27;20107;-62
2021/06/08 11:49:31;;;;;;;5.00;2.25;;;27.20;43.40;;;;;;5261506;27;20106;-61
2021/06/08 11:52:17;;;;;;;3.22;2.00;;;27.20;44.00;;;;;;5261628;27;20108;-59
2021/06/08 11:54:49;;;;;;;6.43;2.10;;;27.30;44.20;;;;;;5262405;27;20106;-59
2021/06/08 11:57:34;;;;;;;4.35;2.30;;;27.40;43.90;;;;;;5262283;27;20571;-59
2021/06/08 12:00:12;;;;;;;3.25;2.60;;;27.50;42.70;;;;;;5260780;27;20154;-60
2021/06/08 12:03:00;;;;;;;7.62;3.17;;;27.40;41.80;;;;;;5259987;27;20162;-59
2021/06/08 12:05:48;;;;;;;3.20;2.47;;;27.10;43.20;;;;;;5259228;27;20181;-58
2021/06/08 12:08:22;;;;;;;4.35;2.70;;;27.00;43.30;;;;;;5240582;27;20116;-59
2021/06/08 12:11:16;;;;;;;6.68;2.40;;;26.90;43.60;;;;;;5259429;27;20154;-60
2021/06/08 12:13:49;;;;;;;5.30;3.03;;;26.90;43.80;;;;;;5259879;27;20134;-60
2021/06/08 12:16:17;;;;;;;4.85;2.45;;;27.10;43.70;;;;;;5262344;27;20158;-60
2021/06/08 12:18:44;;;;;;;4.85;2.67;;;27.10;44.10;;;;;;5242791;27;20139;-60
2021/06/08 12:21:11;;;;;;;7.03;2.83;;;27.00;43.40;;;;;;5261151;27;20154;-60
2021/06/08 12:23:39;;;;;;;8.07;2.80;;;27.10;43.10;;;;;;5261770;27;20116;-60
2021/06/08 12:26:07;;;;;;;3.58;2.55;;;27.20;43.90;;;;;;5261350;27;20107;-60
2021/06/08 12:28:35;;;;;;;4.30;2.83;;;27.20;43.40;;;;;;5261331;27;20115;-61
2021/06/08 12:31:10;;;;;;;4.12;2.55;;;27.20;43.40;;;;;;5261642;27;20115;-60
2021/06/08 12:33:37;;;;;;;4.85;2.33;;;27.10;44.00;;;;;;5261654;27;20154;-59
2021/06/08 12:36:04;;;;;;;2.28;1.90;;;27.20;44.60;;;;;;5262965;27;20508;-61
2021/06/08 12:38:31;;;;;;;2.83;2.22;;;27.20;45.20;;;;;;5262026;27;20173;-61
2021/06/08 12:40:59;;;;;;;5.97;2.17;;;27.30;45.30;;;;;;5261880;27;20153;-61
2021/06/08 12:43:28;;;;;;;4.28;2.33;;;27.20;44.40;;;;;;5261680;27;20107;-59
2021/06/08 12:45:58;;;;;;;5.60;2.30;;;27.30;45.20;;;;;;5261113;27;20107;-61
2021/06/08 12:48:26;;;;;;;5.37;2.30;;;27.30;44.80;;;;;;5261437;27;20107;-61
2021/06/08 12:50:53;;;;;;;3.72;2.25;;;27.10;43.90;;;;;;5260908;27;20111;-60
2021/06/08 12:53:22;;;;;;;3.05;1.92;;;26.90;44.20;;;;;;5260583;27;20112;-59